Time;durP1;ratioP1;P1;durP2;ratioP2;P2;SDS_P1;SDS_P2;PMS_P1;PMS_P2;Temp;Humidity;BMP_temperature;BMP_pressure;BME280_temperature;BME280_humidity;BME280_pressure;Samples;Min_cycle;Max_cycle;Signal;HPM_P1;HPM_P2
2023/07/22 00:02:35;;;;;;;7.25;4.62;;;;;;;23.60;47.46;100144.03;1780811;80;21893;-80
2023/07/22 00:05:42;;;;;;;8.83;4.85;;;;;;;23.60;47.41;100142.64;1781449;80;21612;-80
2023/07/22 00:08:48;;;;;;;9.00;4.40;;;;;;;23.65;47.20;100139.92;1781626;80;21213;-80
2023/07/22 00:11:58;;;;;;;7.30;4.62;;;;;;;23.65;47.24;100134.89;1778624;80;21322;-80
2023/07/22 00:15:06;;;;;;;15.43;5.28;;;;;;;23.41;47.74;100133.83;1803131;79;21615;-80
2023/07/22 00:18:12;;;;;;;6.58;4.97;;;;;;;23.37;47.77;100129.03;1801758;79;22641;-80
2023/07/22 00:21:18;;;;;;;8.13;4.97;;;;;;;23.46;47.65;100139.45;1801806;79;21302;-80
2023/07/22 00:24:24;;;;;;;8.55;5.03;;;;;;;23.51;47.45;100145.63;1802711;79;21300;-80
2023/07/22 00:27:31;;;;;;;6.50;4.90;;;;;;;23.49;47.45;100146.47;1802385;79;21351;-80
2023/07/22 00:30:37;;;;;;;8.65;4.85;;;;;;;23.61;47.23;100140.12;1802565;79;21292;-80
2023/07/22 00:33:43;;;;;;;8.10;5.37;;;;;;;23.69;47.05;100146.66;1801533;79;21327;-80
2023/07/22 00:36:49;;;;;;;8.55;5.05;;;;;;;23.60;47.19;100152.97;1802678;79;21883;-81
2023/07/22 00:39:55;;;;;;;12.90;5.45;;;;;;;23.61;47.11;100159.67;1802631;79;21319;-80
2023/07/22 00:43:01;;;;;;;7.12;5.08;;;;;;;23.55;47.22;100159.91;1802099;79;21363;-80
2023/07/22 00:46:07;;;;;;;8.18;5.37;;;;;;;23.55;47.31;100161.30;1802488;79;21295;-80
2023/07/22 00:49:15;;;;;;;8.55;5.95;;;;;;;23.48;47.43;100158.74;1802699;79;21303;-80
2023/07/22 00:52:22;;;;;;;8.58;5.40;;;;;;;23.78;46.99;100162.37;1802679;79;21355;-80
2023/07/22 00:55:28;;;;;;;8.18;5.70;;;;;;;23.74;46.78;100159.82;1802714;79;21287;-80
2023/07/22 00:58:34;;;;;;;7.58;5.50;;;;;;;23.45;47.14;100161.50;1801846;79;21324;-80
2023/07/22 01:01:40;;;;;;;10.65;5.83;;;;;;;23.47;47.13;100165.41;1800959;79;21295;-80
2023/07/22 01:04:35;;;;;;;12.93;6.45;;;;;;;23.40;47.17;100153.63;1802828;79;21236;-80
2023/07/22 01:07:42;;;;;;;9.70;6.35;;;;;;;23.50;47.15;100156.52;1803327;79;21295;-80
2023/07/22 01:10:48;;;;;;;9.95;5.40;;;;;;;23.54;47.16;100154.04;1785353;79;21308;-80
2023/07/22 01:13:57;;;;;;;8.35;5.45;;;;;;;23.52;47.13;100153.45;1803381;79;21290;-80
2023/07/22 01:17:01;;;;;;;8.10;5.65;;;;;;;23.59;46.75;100148.50;1811224;79;21315;-80
2023/07/22 01:20:09;;;;;;;6.83;5.00;;;;;;;23.70;46.41;100141.35;1811150;79;21296;-80
2023/07/22 01:23:17;;;;;;;7.43;5.17;;;;;;;23.41;46.89;100146.94;1809916;79;21311;-80
2023/07/22 01:26:22;;;;;;;11.38;5.80;;;;;;;23.33;47.20;100136.25;1811159;79;21299;-80
2023/07/22 01:29:30;;;;;;;9.48;5.62;;;;;;;23.21;47.40;100137.27;1810128;79;21334;-80
2023/07/22 01:32:37;;;;;;;12.18;5.62;;;;;;;23.18;47.45;100150.89;1811165;79;21307;-80
2023/07/22 01:35:43;;;;;;;8.73;5.78;;;;;;;23.03;47.83;100145.17;1811048;79;21228;-80
2023/07/22 01:38:50;;;;;;;10.48;5.80;;;;;;;23.18;47.77;100148.95;1811200;79;21327;-80
2023/07/22 01:41:56;;;;;;;10.30;5.95;;;;;;;23.05;47.99;100153.55;1811049;79;21322;-80
2023/07/22 01:45:02;;;;;;;10.10;6.65;;;;;;;23.00;48.00;100149.86;1809708;79;21339;-80
2023/07/22 01:48:07;;;;;;;16.12;7.78;;;;;;;23.17;47.58;100140.30;1811150;79;21866;-80
2023/07/22 01:51:12;;;;;;;14.78;8.18;;;;;;;23.13;47.69;100142.48;1811176;79;21311;-80
2023/07/22 01:54:17;;;;;;;15.20;8.20;;;;;;;23.23;47.73;100156.53;1810489;79;21386;-80
2023/07/22 01:57:22;;;;;;;15.70;8.13;;;;;;;23.24;47.83;100157.37;1811093;79;21850;-80
2023/07/22 02:00:28;;;;;;;17.87;7.00;;;;;;;23.27;48.00;100158.25;1809820;79;21339;-80
2023/07/22 02:03:35;;;;;;;9.30;5.95;;;;;;;23.39;47.67;100150.00;1809960;79;21330;-80
2023/07/22 02:06:41;;;;;;;16.02;6.37;;;;;;;23.61;46.71;100161.63;1811092;79;21291;-80
2023/07/22 02:09:47;;;;;;;8.95;5.90;;;;;;;23.65;46.42;100170.62;1809617;79;21311;-80
2023/07/22 02:13:00;;;;;;;9.03;6.80;;;;;;;23.37;46.81;100161.97;1811091;79;21310;-80
2023/07/22 02:16:06;;;;;;;11.50;6.95;;;;;;;23.38;46.96;100164.20;1802472;79;21189;-80
2023/07/22 02:19:12;;;;;;;13.65;6.55;;;;;;;23.45;46.73;100184.38;1802611;79;21300;-80
2023/07/22 02:22:18;;;;;;;15.30;5.78;;;;;;;23.47;46.42;100176.58;1802627;79;21291;-80
2023/07/22 02:25:24;;;;;;;10.15;6.12;;;;;;;23.68;45.92;100170.11;1801419;79;21300;-80
2023/07/22 02:28:30;;;;;;;10.40;6.40;;;;;;;23.66;45.88;100171.47;1802572;79;21303;-81
2023/07/22 02:31:36;;;;;;;8.33;5.40;;;;;;;23.77;45.78;100172.42;1802633;79;21303;-80
2023/07/22 02:34:43;;;;;;;9.73;6.22;;;;;;;24.08;45.44;100181.86;1801978;79;21934;-80
2023/07/22 02:37:49;;;;;;;16.00;6.53;;;;;;;24.15;45.24;100174.09;1802608;79;21299;-81
2023/07/22 02:40:58;;;;;;;11.15;6.20;;;;;;;24.33;44.86;100179.25;1802673;79;21284;-81
2023/07/22 02:44:04;;;;;;;10.08;6.53;;;;;;;24.24;45.01;100180.86;1802621;79;21299;-80
2023/07/22 02:47:10;;;;;;;13.25;6.22;;;;;;;24.42;44.89;100188.00;1801168;79;21324;-80
2023/07/22 02:50:16;;;;;;;7.58;5.72;;;;;;;24.61;44.77;100187.81;1802548;79;21927;-81
2023/07/22 02:53:22;;;;;;;12.88;5.70;;;;;;;24.81;44.42;100190.42;1802671;79;21288;-81
2023/07/22 02:56:27;;;;;;;16.30;6.50;;;;;;;25.03;44.05;100192.47;1802603;79;21291;-81
2023/07/22 02:59:26;;;;;;;11.05;7.08;;;;;;;25.37;43.77;100200.42;1803087;79;21288;-81
2023/07/22 03:02:18;;;;;;;18.15;7.22;;;;;;;25.84;43.17;100208.62;1801059;79;21897;-81
2023/07/22 03:05:08;;;;;;;13.10;6.10;;;;;;;26.50;42.29;100209.97;1801933;79;21291;-81
2023/07/22 03:08:02;;;;;;;8.80;6.28;;;;;;;26.82;41.43;100203.69;1802580;79;21324;-81
2023/07/22 03:10:49;;;;;;;18.90;6.42;;;;;;;27.13;40.76;100201.62;1802788;79;21233;-81
2023/07/22 03:13:42;;;;;;;10.82;6.78;;;;;;;27.14;40.55;100204.13;1802389;79;21287;-81
2023/07/22 03:16:49;;;;;;;16.82;7.80;;;;;;;27.41;39.91;100197.24;1805663;79;21791;-80
2023/07/22 03:19:55;;;;;;;21.50;7.85;;;;;;;27.84;39.19;100193.30;1786980;79;21885;-80
2023/07/22 03:23:01;;;;;;;16.42;7.37;;;;;;;27.78;39.14;100195.32;1811556;79;21304;-80
2023/07/22 03:26:06;;;;;;;12.15;6.90;;;;;;;28.40;38.20;100190.83;1810075;79;21307;-81
2023/07/22 03:29:12;;;;;;;12.78;6.55;;;;;;;28.69;38.03;100187.13;1811086;79;22569;-81
2023/07/22 03:32:18;;;;;;;13.60;7.37;;;;;;;29.18;37.63;100185.39;1810995;79;21300;-80
2023/07/22 03:35:25;;;;;;;8.48;6.35;;;;;;;29.78;37.15;100184.23;1810722;79;21345;-80
2023/07/22 03:38:31;;;;;;;11.53;6.28;;;;;;;29.99;37.29;100181.05;1810978;79;21291;-80
2023/07/22 03:41:37;;;;;;;11.97;7.33;;;;;;;30.38;36.87;100173.58;1810994;79;21299;-80
2023/07/22 03:44:41;;;;;;;11.10;6.28;;;;;;;30.66;36.54;100181.48;1810914;79;21315;-81
2023/07/22 03:47:48;;;;;;;13.62;6.67;;;;;;;30.89;36.51;100179.63;1811112;79;21315;-80
2023/07/22 03:50:54;;;;;;;12.95;6.35;;;;;;;30.76;36.54;100174.83;1810690;79;21657;-81
2023/07/22 03:54:01;;;;;;;15.20;6.40;;;;;;;31.14;36.24;100178.80;1810369;79;21291;-80
2023/07/22 03:57:08;;;;;;;12.78;6.42;;;;;;;31.08;36.07;100189.97;1809477;79;21327;-80
2023/07/22 04:00:16;;;;;;;10.72;6.17;;;;;;;31.50;35.39;100186.76;1811069;79;21306;-81
2023/07/22 04:03:22;;;;;;;12.70;6.00;;;;;;;31.50;35.47;100191.58;1810031;79;21323;-80
2023/07/22 04:06:29;;;;;;;10.10;6.00;;;;;;;31.66;35.30;100190.04;1810307;79;21877;-81
2023/07/22 04:09:38;;;;;;;11.53;6.28;;;;;;;32.00;34.92;100191.52;1811031;79;21323;-81
2023/07/22 04:12:44;;;;;;;10.70;6.27;;;;;;;32.03;34.66;100193.67;1811509;79;21359;-81
2023/07/22 04:15:51;;;;;;;14.40;5.80;;;;;;;31.95;34.83;100188.81;1810815;79;21928;-80
2023/07/22 04:18:56;;;;;;;14.33;6.30;;;;;;;31.87;34.53;100193.24;1811130;79;21850;-80
2023/07/22 04:22:04;;;;;;;13.88;6.20;;;;;;;31.77;34.40;100197.13;1810351;79;21334;-80
2023/07/22 04:25:10;;;;;;;14.63;6.33;;;;;;;31.56;34.58;100199.60;1811104;79;21287;-81
2023/07/22 04:28:17;;;;;;;17.37;6.72;;;;;;;31.61;34.36;100204.88;1811159;79;21291;-81
2023/07/22 04:31:17;;;;;;;15.60;6.85;;;;;;;31.70;34.40;100202.38;1811105;79;21318;-80
2023/07/22 04:34:12;;;;;;;22.02;7.03;;;;;;;31.54;34.73;100206.75;1811095;79;21299;-81
2023/07/22 04:36:59;;;;;;;20.70;7.87;;;;;;;31.62;33.98;100210.23;1810269;79;21255;-80
2023/07/22 04:39:56;;;;;;;20.55;7.37;;;;;;;31.48;34.17;100210.28;1811084;79;21295;-80
2023/07/22 04:42:42;;;;;;;16.23;7.72;;;;;;;31.63;33.91;100199.18;1811109;79;21315;-80
2023/07/22 04:45:35;;;;;;;10.03;5.08;;;;;;;31.71;34.47;100201.80;1811086;79;21299;-80
2023/07/22 04:51:26;;;;;;;11.15;5.80;;;;;;;31.78;34.00;100192.31;1877064;76;27964;-82
2023/07/22 04:54:33;;;;;;;9.25;4.78;;;;;;;31.79;33.58;100196.22;1781383;80;21291;-81
2023/07/22 04:57:32;;;;;;;15.95;5.72;;;;;;;31.80;33.13;100181.50;1813428;79;21295;-81
2023/07/22 05:00:33;;;;;;;14.60;5.35;;;;;;;30.87;34.51;100193.82;1777545;80;21885;-81
2023/07/22 05:03:41;;;;;;;9.93;3.70;;;;;;;30.98;34.99;100189.61;1754566;80;21917;-81
2023/07/22 05:06:48;;;;;;;7.45;3.50;;;;;;;31.74;33.16;100187.03;1749329;82;21317;-81
2023/07/22 05:09:54;;;;;;;9.83;3.70;;;;;;;31.68;32.55;100185.50;1749160;82;21375;-81
2023/07/22 05:12:59;;;;;;;5.30;3.15;;;;;;;31.54;33.04;100179.89;1749056;82;21317;-81
2023/07/22 05:16:05;;;;;;;9.80;4.05;;;;;;;31.31;33.08;100177.61;1749087;82;21314;-81
2023/07/22 05:19:11;;;;;;;6.92;3.00;;;;;;;31.15;33.45;100172.00;1750548;82;21335;-82
2023/07/22 05:22:17;;;;;;;7.75;2.30;;;;;;;31.34;33.21;100164.27;1750451;82;21661;-80
2023/07/22 05:25:23;;;;;;;4.70;2.55;;;;;;;31.35;32.70;100159.45;1750692;82;21315;-80
2023/07/22 05:28:28;;;;;;;7.15;3.92;;;;;;;31.48;32.38;100154.33;1750451;82;21330;-80
2023/07/22 05:31:35;;;;;;;10.63;3.70;;;;;;;31.63;32.71;100144.05;1749335;82;21375;-80
2023/07/22 05:34:41;;;;;;;6.10;3.15;;;;;;;31.97;32.61;100147.72;1750523;82;21315;-80
2023/07/22 05:37:46;;;;;;;4.92;2.47;;;;;;;31.85;32.98;100156.53;1750929;82;21906;-79
2023/07/22 05:40:52;;;;;;;7.72;2.33;;;;;;;32.14;31.93;100159.73;1750164;82;21953;-80
2023/07/22 05:43:59;;;;;;;4.17;2.25;;;;;;;32.11;31.89;100148.22;1750543;82;21319;-80
2023/07/22 05:47:05;;;;;;;6.42;2.55;;;;;;;32.17;31.50;100143.50;1750503;82;21323;-80
2023/07/22 05:50:13;;;;;;;5.15;1.77;;;;;;;32.28;30.90;100134.17;1747839;82;21323;-80
2023/07/22 05:53:20;;;;;;;4.35;2.17;;;;;;;32.48;31.32;100142.11;1737771;82;21311;-80
2023/07/22 05:56:13;;;;;;;3.98;2.02;;;;;;;33.04;31.04;100143.30;1737863;82;21296;-80
2023/07/22 05:59:19;;;;;;;8.28;2.00;;;;;;;33.24;30.46;100146.66;1737859;82;21874;-80
2023/07/22 06:02:25;;;;;;;4.17;1.92;;;;;;;32.86;30.94;100140.73;1735894;81;21334;-80
2023/07/22 06:05:31;;;;;;;3.55;1.80;;;;;;;33.11;30.66;100144.80;1737337;82;21212;-80
2023/07/22 06:08:39;;;;;;;2.27;1.60;;;;;;;33.23;30.43;100143.00;1737264;82;21921;-79
2023/07/22 06:11:44;;;;;;;4.15;1.50;;;;;;;33.36;29.61;100148.81;1736418;82;21351;-80
2023/07/22 06:14:51;;;;;;;2.67;1.30;;;;;;;33.35;29.94;100152.23;1737310;82;21331;-80
2023/07/22 06:17:58;;;;;;;4.12;1.50;;;;;;;33.38;28.71;100153.59;1737204;82;21299;-80
2023/07/22 06:21:05;;;;;;;2.27;1.05;;;;;;;33.42;27.95;100158.84;1736924;82;21351;-80
2023/07/22 06:24:11;;;;;;;2.52;1.40;;;;;;;33.15;27.85;100155.14;1737300;82;21973;-79
2023/07/22 06:27:16;;;;;;;3.37;1.37;;;;;;;33.05;27.92;100156.30;1737233;82;21307;-79
2023/07/22 06:30:23;;;;;;;2.52;1.40;;;;;;;33.06;28.10;100156.54;1737221;82;21331;-80
2023/07/22 06:33:29;;;;;;;2.50;1.57;;;;;;;33.23;28.43;100157.16;1735986;82;21323;-79
2023/07/22 06:36:35;;;;;;;2.12;1.30;;;;;;;33.43;28.00;100151.45;1736326;82;21371;-80
2023/07/22 06:39:41;;;;;;;2.22;1.25;;;;;;;33.28;28.24;100166.92;1735995;82;21878;-80
2023/07/22 06:42:47;;;;;;;1.77;1.35;;;;;;;33.26;27.56;100160.73;1736973;82;21315;-80
2023/07/22 06:45:46;;;;;;;2.42;1.42;;;;;;;33.32;27.54;100164.27;1737513;82;21295;-80
2023/07/22 06:48:53;;;;;;;2.58;1.20;;;;;;;33.26;27.56;100161.31;1737303;82;21236;-79
2023/07/22 06:51:59;;;;;;;1.77;1.02;;;;;;;33.51;27.53;100172.47;1735220;82;21304;-80
2023/07/22 06:54:58;;;;;;;2.77;1.35;;;;;;;33.88;26.94;100168.11;1736176;82;21236;-80
2023/07/22 06:57:51;;;;;;;3.58;1.30;;;;;;;33.23;27.05;100151.50;1737280;82;21308;-80
2023/07/22 07:01:02;;;;;;;2.12;1.07;;;;;;;33.23;27.05;100151.50;1737391;82;21304;-79
2023/07/22 07:04:10;;;;;;;3.05;1.30;;;;;;;33.16;27.46;100157.39;1737290;82;21319;-80
2023/07/22 07:07:17;;;;;;;7.75;1.67;;;;;;;33.20;27.35;100152.14;1736831;82;21213;-80
2023/07/22 07:10:36;;;;;;;2.50;1.22;;;;;;;33.15;27.56;100143.81;1737344;82;21313;-80
2023/07/22 07:13:42;;;;;;;1.32;1.10;;;;;;;33.43;27.89;100136.44;1736155;82;21463;-80
2023/07/22 07:16:49;;;;;;;2.33;1.20;;;;;;;33.57;26.33;100135.69;1737290;82;21862;-80
2023/07/22 07:19:56;;;;;;;7.90;1.40;;;;;;;33.46;26.21;100137.20;1737110;82;21909;-80
2023/07/22 07:23:01;;;;;;;1.42;1.00;;;;;;;33.64;26.95;100137.41;1736187;82;21339;-80
2023/07/22 07:26:10;;;;;;;3.70;0.90;;;;;;;33.59;26.43;100151.77;1737596;82;21303;-80
2023/07/22 07:29:16;;;;;;;5.55;1.10;;;;;;;33.94;26.33;100151.16;1735875;82;21343;-79
2023/07/22 07:32:23;;;;;;;6.03;1.50;;;;;;;34.41;25.34;100150.39;1734966;82;21347;-80
2023/07/22 07:35:29;;;;;;;3.27;1.22;;;;;;;34.30;25.86;100140.83;1737003;82;21894;-79
2023/07/22 07:38:35;;;;;;;2.37;1.25;;;;;;;34.81;25.21;100141.77;1736107;82;21925;-80
2023/07/22 07:41:43;;;;;;;2.55;1.30;;;;;;;34.91;25.70;100143.97;1735902;82;21320;-79
2023/07/22 07:44:49;;;;;;;2.45;1.57;;;;;;;35.12;24.85;100117.05;1737317;82;21928;-79
2023/07/22 07:47:55;;;;;;;3.60;1.30;;;;;;;35.12;24.85;100117.05;1737147;82;21307;-80
2023/07/22 07:51:01;;;;;;;3.60;1.30;;;;;;;34.73;24.68;100131.31;1737225;82;21322;-80
2023/07/22 07:54:08;;;;;;;2.52;1.47;;;;;;;34.12;25.55;100128.45;1734739;82;21668;-80
2023/07/22 07:57:14;;;;;;;2.25;1.00;;;;;;;34.17;24.89;100128.27;1737368;82;21323;-80
2023/07/22 08:00:21;;;;;;;2.42;1.17;;;;;;;33.85;24.82;100128.23;1737192;82;21336;-80
2023/07/22 08:03:27;;;;;;;1.55;1.00;;;;;;;33.81;25.63;100128.89;1736354;81;21228;-80
2023/07/22 08:06:33;;;;;;;1.42;1.00;;;;;;;33.81;25.63;100128.89;1737119;82;21311;-79
2023/07/22 08:09:40;;;;;;;4.90;1.27;;;;;;;33.69;25.31;100140.11;1737206;82;21953;-79
2023/07/22 08:12:48;;;;;;;2.40;1.10;;;;;;;33.87;25.09;100135.80;1736157;82;21781;-79
2023/07/22 08:15:55;;;;;;;1.70;1.20;;;;;;;33.79;24.99;100133.25;1737215;82;21315;-79
2023/07/22 08:19:01;;;;;;;5.10;1.00;;;;;;;33.92;25.22;100131.38;1737421;82;21185;-79
2023/07/22 08:22:07;;;;;;;3.12;1.20;;;;;;;33.95;25.14;100130.16;1737039;82;21319;-79
2023/07/22 08:25:14;;;;;;;10.72;1.72;;;;;;;33.78;24.33;100136.68;1737217;82;21319;-80
2023/07/22 08:28:21;;;;;;;2.22;1.10;;;;;;;33.62;25.34;100139.77;1736775;82;22655;-79
2023/07/22 08:31:28;;;;;;;3.67;1.32;;;;;;;33.35;24.98;100128.73;1737231;82;21886;-80
2023/07/22 08:34:35;;;;;;;1.57;1.02;;;;;;;33.43;25.05;100119.44;1737268;82;21878;-80
2023/07/22 08:37:41;;;;;;;2.27;1.45;;;;;;;33.56;25.59;100124.10;1737149;82;21335;-80
2023/07/22 08:40:48;;;;;;;4.78;1.20;;;;;;;33.45;24.43;100119.33;1737281;82;21870;-79
2023/07/22 08:43:55;;;;;;;2.65;1.42;;;;;;;33.53;24.52;100116.26;1736417;82;21894;-80
2023/07/22 08:47:07;;;;;;;6.12;1.60;;;;;;;33.80;24.64;100107.38;1737213;82;21894;-80
2023/07/22 08:50:13;;;;;;;7.55;2.05;;;;;;;33.88;25.17;100106.27;1737219;82;21335;-79
2023/07/22 08:53:20;;;;;;;4.85;1.87;;;;;;;34.11;25.44;100106.31;1736136;82;21930;-81
2023/07/22 08:56:26;;;;;;;6.12;2.17;;;;;;;34.34;25.40;100087.86;1738245;82;21336;-80
2023/07/22 08:59:33;;;;;;;4.00;2.02;;;;;;;34.83;25.37;100087.47;1738680;82;21348;-80
2023/07/22 09:02:41;;;;;;;8.53;2.50;;;;;;;34.83;25.37;100087.47;1739043;82;21356;-80
2023/07/22 09:05:49;;;;;;;7.60;3.05;;;;;;;34.97;25.40;100097.18;1739806;82;21329;-80
2023/07/22 09:08:55;;;;;;;6.87;4.37;;;;;;;35.62;24.30;100092.81;1739538;82;21321;-79
2023/07/22 09:12:01;;;;;;;16.50;5.33;;;;;;;35.38;24.72;100079.86;1739492;82;21328;-80
2023/07/22 09:15:08;;;;;;;14.33;6.17;;;;;;;35.24;25.22;100077.30;1738188;82;22662;-80
2023/07/22 09:18:15;;;;;;;19.62;6.67;;;;;;;35.20;25.49;100074.34;1739505;82;21349;-79
2023/07/22 09:21:22;;;;;;;18.52;7.95;;;;;;;35.20;25.49;100074.34;1739641;82;21905;-80
2023/07/22 09:24:31;;;;;;;26.27;8.23;;;;;;;35.32;26.10;100082.09;1738777;82;21348;-80
2023/07/22 09:27:42;;;;;;;15.18;7.53;;;;;;;35.32;26.10;100082.09;1740367;82;21904;-80
2023/07/22 09:30:49;;;;;;;23.60;9.05;;;;;;;35.78;25.78;100069.62;1738242;82;21345;-80
2023/07/22 09:33:55;;;;;;;17.62;8.40;;;;;;;36.34;24.30;100067.73;1739220;82;21250;-80
2023/07/22 09:37:05;;;;;;;25.62;10.72;;;;;;;36.34;24.30;100067.73;1739606;82;21304;-80
2023/07/22 09:40:10;;;;;;;24.25;8.93;;;;;;;35.81;25.61;100070.95;1713585;83;21334;-80
2023/07/22 09:43:18;;;;;;;21.07;8.70;;;;;;;35.62;25.61;100057.26;1713505;83;21303;-80
2023/07/22 09:46:24;;;;;;;16.30;9.33;;;;;;;35.62;25.61;100057.26;1739790;82;21965;-80
2023/07/22 09:49:30;;;;;;;22.13;8.55;;;;;;;36.11;25.52;100048.84;1739657;82;21343;-80
2023/07/22 09:52:37;;;;;;;17.17;7.92;;;;;;;36.26;24.41;100043.87;1738254;82;21322;-79
2023/07/22 09:55:42;;;;;;;22.17;8.88;;;;;;;36.29;24.02;100043.16;1738621;81;21347;-80
2023/07/22 09:58:48;;;;;;;23.92;10.10;;;;;;;36.62;23.38;100047.93;1739732;82;21307;-80
2023/07/22 10:01:54;;;;;;;18.80;9.80;;;;;;;36.82;23.70;100050.38;1739695;82;21224;-80
2023/07/22 10:05:03;;;;;;;19.32;9.48;;;;;;;36.62;23.39;100042.23;1738770;82;22625;-80
2023/07/22 10:08:10;;;;;;;23.20;9.73;;;;;;;36.68;23.85;100035.69;1739686;82;21308;-80
2023/07/22 10:11:16;;;;;;;14.70;8.33;;;;;;;36.40;24.38;100032.72;1717329;82;21881;-80
2023/07/22 10:14:22;;;;;;;24.12;7.30;;;;;;;36.41;23.89;100040.89;1739327;82;21356;-80
2023/07/22 10:17:30;;;;;;;21.15;9.05;;;;;;;35.99;23.59;100034.59;1739601;82;21300;-80
2023/07/22 10:20:36;;;;;;;17.23;9.00;;;;;;;35.65;24.77;100038.64;1739601;82;22764;-80
2023/07/22 10:23:43;;;;;;;19.20;9.18;;;;;;;35.25;25.41;100040.62;1739642;82;21307;-80
2023/07/22 10:26:51;;;;;;;19.62;7.85;;;;;;;35.13;25.56;100044.22;1738287;82;21307;-80
2023/07/22 10:29:57;;;;;;;16.32;8.13;;;;;;;35.08;25.01;100042.41;1740214;82;21358;-80
2023/07/22 10:33:03;;;;;;;14.45;7.65;;;;;;;35.15;25.04;100046.14;1739587;82;21312;-80
2023/07/22 10:36:18;;;;;;;16.52;8.43;;;;;;;34.89;24.83;100046.30;1738215;82;21232;-80
2023/07/22 10:39:35;;;;;;;16.82;8.35;;;;;;;35.03;24.63;100049.73;1739530;82;21334;-80
2023/07/22 10:42:42;;;;;;;19.62;7.45;;;;;;;34.91;25.02;100046.77;1738237;82;21922;-80
2023/07/22 10:45:43;;;;;;;24.25;8.15;;;;;;;34.69;26.01;100062.16;1738832;82;22603;-80
2023/07/22 10:48:39;;;;;;;17.92;8.23;;;;;;;34.88;26.00;100056.60;1739675;82;21220;-80
2023/07/22 10:51:45;;;;;;;17.65;8.15;;;;;;;34.82;25.29;100058.23;1739578;82;21343;-80
2023/07/22 10:54:51;;;;;;;16.42;7.58;;;;;;;34.97;24.93;100058.83;1739502;82;21347;-80
2023/07/22 10:57:59;;;;;;;18.00;6.87;;;;;;;35.01;24.70;100056.95;1697291;84;22020;-80
2023/07/22 11:01:05;;;;;;;14.85;7.05;;;;;;;35.01;25.01;100059.20;1719557;83;21339;-80
2023/07/22 11:04:32;;;;;;;15.85;7.45;;;;;;;34.82;25.03;100055.39;1729924;83;21895;-80
2023/07/22 11:07:42;;;;;;;18.05;7.28;;;;;;;34.71;24.96;100050.44;1728987;83;21321;-80
2023/07/22 11:11:01;;;;;;;19.65;7.33;;;;;;;34.63;24.95;100050.77;1730173;83;21960;-80
2023/07/22 11:14:23;;;;;;;18.07;7.45;;;;;;;34.88;24.75;100044.64;1712953;83;21352;-80
2023/07/22 11:17:39;;;;;;;13.28;6.15;;;;;;;35.04;24.57;100033.51;1729290;83;21642;-80
2023/07/22 11:20:46;;;;;;;10.20;6.25;;;;;;;35.00;23.91;100032.53;1730544;83;21357;-80
2023/07/22 11:23:52;;;;;;;18.98;7.28;;;;;;;35.17;24.20;100028.73;1730526;83;21350;-80
2023/07/22 11:26:59;;;;;;;11.63;6.12;;;;;;;35.17;24.20;100028.73;1728975;83;21356;-81
2023/07/22 11:30:07;;;;;;;15.23;7.90;;;;;;;35.09;24.07;100035.55;1729890;83;21314;-80
2023/07/22 11:33:12;;;;;;;14.45;6.28;;;;;;;35.23;24.15;100029.57;1729976;83;21345;-81
2023/07/22 11:36:19;;;;;;;15.95;6.78;;;;;;;35.15;24.35;100030.51;1729351;83;21350;-81
2023/07/22 11:39:32;;;;;;;15.90;6.62;;;;;;;35.18;24.07;100028.96;1729971;83;21318;-80
2023/07/22 11:42:34;;;;;;;16.62;6.85;;;;;;;35.56;23.13;100031.03;1730778;83;21361;-81
2023/07/22 11:45:41;;;;;;;15.90;6.87;;;;;;;35.54;23.26;100025.47;1729754;83;21313;-81
2023/07/22 11:48:48;;;;;;;19.07;6.78;;;;;;;35.95;23.12;100020.27;1729904;83;21322;-81
2023/07/22 11:51:55;;;;;;;16.57;6.33;;;;;;;35.89;22.67;100012.26;1728552;83;21945;-81
2023/07/22 11:55:00;;;;;;;12.58;5.25;;;;;;;35.85;22.40;100016.39;1729967;83;21321;-81
2023/07/22 11:58:09;;;;;;;12.30;5.92;;;;;;;35.68;22.16;100013.77;1732140;82;21345;-80
2023/07/22 12:01:16;;;;;;;13.70;5.55;;;;;;;35.82;22.12;100007.98;1732683;82;21338;-82
2023/07/22 12:04:23;;;;;;;;;;;;;;;35.89;22.32;99999.45;1731619;82;21334;-79
2023/07/22 12:07:38;;;;;;;7.30;3.42;;;;;;;35.81;22.58;99994.95;1738353;82;20687;-79
2023/07/22 12:10:44;;;;;;;17.92;3.87;;;;;;;35.84;22.39;99991.98;1708034;84;22642;-79
2023/07/22 12:13:51;;;;;;;5.83;3.05;;;;;;;35.76;22.88;99992.91;1770878;81;21302;-79
2023/07/22 12:17:02;;;;;;;7.10;3.65;;;;;;;35.73;22.96;100001.57;1770047;81;21897;-79
2023/07/22 12:20:11;;;;;;;6.20;2.90;;;;;;;35.56;22.65;100000.34;1770845;81;21879;-81
2023/07/22 12:23:18;;;;;;;5.92;2.80;;;;;;;35.57;22.84;99994.88;1734964;81;21291;-79
2023/07/22 12:26:24;;;;;;;7.05;3.85;;;;;;;35.74;22.97;99994.70;1770513;81;21350;-80
2023/07/22 12:29:30;;;;;;;8.15;3.67;;;;;;;35.72;22.85;99988.54;1769338;81;21298;-80
2023/07/22 12:32:38;;;;;;;10.63;5.08;;;;;;;35.83;22.71;99997.44;1770618;81;21322;-80
2023/07/22 12:35:43;;;;;;;13.48;5.72;;;;;;;35.69;22.39;99996.94;1770839;81;21305;-79
2023/07/22 12:38:49;;;;;;;13.08;5.33;;;;;;;35.61;22.94;99998.69;1770760;81;21192;-80
2023/07/22 12:41:55;;;;;;;8.83;4.40;;;;;;;35.37;22.84;99992.31;1770959;81;22611;-79
2023/07/22 12:45:02;;;;;;;10.88;4.40;;;;;;;35.75;23.24;99992.08;1770810;81;21326;-80
2023/07/22 12:48:08;;;;;;;5.47;4.05;;;;;;;35.77;23.65;99989.73;1769500;81;21332;-80
2023/07/22 12:51:16;;;;;;;6.95;3.55;;;;;;;35.95;23.17;99996.64;1770864;81;21846;-79
2023/07/22 12:54:23;;;;;;;10.85;4.05;;;;;;;36.03;22.61;99981.47;1769436;81;21315;-80
2023/07/22 12:57:29;;;;;;;10.80;4.03;;;;;;;36.15;22.61;99984.33;1770146;81;21888;-80
2023/07/22 13:00:34;;;;;;;8.15;4.58;;;;;;;36.20;22.30;99978.40;1770708;81;21295;-81
2023/07/22 13:03:39;;;;;;;14.15;5.05;;;;;;;36.02;22.90;99979.22;1771161;79;21337;-81
2023/07/22 13:06:46;;;;;;;9.18;4.10;;;;;;;36.07;22.98;99976.73;1770805;81;21329;-81
2023/07/22 13:09:57;;;;;;;7.75;4.10;;;;;;;35.61;22.63;99971.67;1769473;81;21309;-81
2023/07/22 13:12:56;;;;;;;8.75;4.03;;;;;;;35.54;22.56;99967.17;1769714;81;21174;-81
2023/07/22 13:16:02;;;;;;;10.63;3.83;;;;;;;35.70;22.86;99970.98;1771725;81;21287;-81
2023/07/22 13:19:09;;;;;;;9.25;3.10;;;;;;;36.19;23.15;99961.69;1771074;81;21301;-81
2023/07/22 13:22:15;;;;;;;5.45;3.30;;;;;;;36.19;23.15;99961.69;1770999;81;21293;-81
2023/07/22 13:25:21;;;;;;;17.15;3.30;;;;;;;36.43;22.74;99957.41;1770921;81;21302;-81
2023/07/22 13:28:26;;;;;;;7.53;4.25;;;;;;;36.77;21.97;99958.86;1771762;81;21907;-81
2023/07/22 13:31:32;;;;;;;8.40;4.15;;;;;;;36.85;22.00;99964.19;1770900;81;21299;-81
2023/07/22 13:34:32;;;;;;;11.68;5.25;;;;;;;36.36;22.40;99957.14;1771110;81;21301;-81
2023/07/22 13:37:38;;;;;;;10.90;4.40;;;;;;;36.42;22.00;99952.02;1770389;81;21342;-81
2023/07/22 13:40:44;;;;;;;13.28;4.47;;;;;;;36.29;22.15;99942.09;1771145;81;21287;-81
2023/07/22 13:43:50;;;;;;;14.78;4.12;;;;;;;36.17;22.21;99944.94;1771002;81;21231;-81
2023/07/22 13:46:55;;;;;;;7.58;4.30;;;;;;;35.82;22.32;99951.09;1771149;81;21917;-81
2023/07/22 13:50:02;;;;;;;8.20;4.17;;;;;;;35.51;22.58;99936.58;1771102;81;21306;-81
2023/07/22 13:53:08;;;;;;;9.30;4.10;;;;;;;35.40;23.10;99942.47;1770867;81;21338;-81
2023/07/22 13:56:14;;;;;;;10.25;4.12;;;;;;;35.28;22.91;99939.81;1770964;81;21307;-80
2023/07/22 13:59:20;;;;;;;11.33;4.00;;;;;;;35.25;23.17;99924.07;1771975;80;21879;-80
2023/07/22 14:02:26;;;;;;;6.97;3.90;;;;;;;35.20;23.41;99927.97;1784323;79;21328;-80
2023/07/22 14:05:32;;;;;;;10.03;3.92;;;;;;;35.25;23.15;99913.53;1784779;80;21303;-80
2023/07/22 14:08:39;;;;;;;6.85;4.00;;;;;;;35.23;22.95;99917.30;1784061;80;21349;-80
2023/07/22 14:11:45;;;;;;;9.28;4.08;;;;;;;35.34;23.05;99911.42;1784791;80;21313;-80
2023/07/22 14:14:51;;;;;;;11.48;4.15;;;;;;;35.27;22.83;99913.99;1783307;80;21912;-80
2023/07/22 14:17:57;;;;;;;10.63;4.30;;;;;;;35.38;22.62;99907.85;1783145;80;21927;-80
2023/07/22 14:21:03;;;;;;;9.60;4.10;;;;;;;35.38;22.62;99907.85;1784758;79;22562;-80
2023/07/22 14:24:10;;;;;;;9.78;3.80;;;;;;;35.04;23.40;99901.37;1784291;80;21327;-80